HKMO/MBA METAR and TAF weather

Enter ICAO airport designator
Station Type Date Time Source
HKMO METAR 2019/06/17 13:00 UTC NOAA

HKMO 171300Z 19010KT 9999 FEW025 SCT270 29/21 Q1016 NOSIG


Station Type Date Time Source
HKMO Decoded METAR 2019/06/17 13:00 UTC NOAA

Mombasa, Kenya (HKMO) 04-02S 039-37E 55M
Jun 17, 2019 - 09:00 AM EDT / 2019.06.17 1300 UTC
Wind: from the S (190 degrees) at 12 MPH (10 KT):0
Visibility: greater than 7 mile(s):0
Sky conditions: partly cloudy
Temperature: 84 F (29 C)
Dew Point: 69 F (21 C)
Relative Humidity: 62%
Pressure (altimeter): 30.00 in. Hg (1016 hPa)
ob: HKMO 171300Z 19010KT 9999 FEW025 SCT270 29/21 Q1016 NOSIG
cycle: 13

Station Type Date Time Source
HKMO TAF 2019/06/17 18:15 UTC NOAA

TAF HKMO 161700Z 1618/1724 19005KT 9999 FEW022 /
BECMG 1700/1703 FEW020 /
BECMG 1706/1709 18010KT FEW024 BKN080 /
BECMG 1712/1715 FEW025 /
BECMG 1718/1724 20010KT FEW022

Example: see airport list